sensor_id;sensor_type;location;lat;lon;timestamp;pressure;altitude;pressure_sealevel;temperature;humidity
804;BME280;25687;49.976;8.240;2023-04-29T00:02:13;99775.31;;;11.14;100.00
804;BME280;25687;49.976;8.240;2023-04-29T00:04:38;99771.03;;;11.15;100.00
804;BME280;25687;49.976;8.240;2023-04-29T00:07:04;99774.41;;;11.16;100.00
804;BME280;25687;49.976;8.240;2023-04-29T00:09:29;99771.63;;;11.19;100.00
804;BME280;25687;49.976;8.240;2023-04-29T00:11:54;99773.22;;;11.21;100.00
804;BME280;25687;49.976;8.240;2023-04-29T00:14:19;99773.50;;;11.17;100.00
804;BME280;25687;49.976;8.240;2023-04-29T00:16:45;99771.03;;;11.15;100.00
804;BME280;25687;49.976;8.240;2023-04-29T00:19:11;99765.03;;;11.14;100.00
804;BME280;25687;49.976;8.240;2023-04-29T00:21:36;99766.16;;;11.10;100.00
804;BME280;25687;49.976;8.240;2023-04-29T00:24:01;99766.63;;;11.03;100.00
804;BME280;25687;49.976;8.240;2023-04-29T00:26:26;99763.31;;;11.01;100.00
804;BME280;25687;49.976;8.240;2023-04-29T00:28:52;99763.16;;;10.89;100.00
804;BME280;25687;49.976;8.240;2023-04-29T00:31:17;99765.56;;;10.78;100.00
804;BME280;25687;49.976;8.240;2023-04-29T00:33:43;99763.06;;;10.76;100.00
804;BME280;25687;49.976;8.240;2023-04-29T00:36:08;99770.13;;;10.73;100.00
804;BME280;25687;49.976;8.240;2023-04-29T00:38:34;99776.22;;;10.72;100.00
804;BME280;25687;49.976;8.240;2023-04-29T00:40:59;99772.00;;;10.71;100.00
804;BME280;25687;49.976;8.240;2023-04-29T00:43:25;99770.88;;;10.75;100.00
804;BME280;25687;49.976;8.240;2023-04-29T00:45:50;99776.13;;;10.73;100.00
804;BME280;25687;49.976;8.240;2023-04-29T00:48:16;99782.53;;;10.52;100.00
804;BME280;25687;49.976;8.240;2023-04-29T00:50:41;99775.47;;;10.55;100.00
804;BME280;25687;49.976;8.240;2023-04-29T00:53:08;99782.91;;;10.60;100.00
804;BME280;25687;49.976;8.240;2023-04-29T00:55:34;99780.91;;;10.51;100.00
804;BME280;25687;49.976;8.240;2023-04-29T00:57:59;99779.78;;;10.55;100.00
804;BME280;25687;49.976;8.240;2023-04-29T01:00:27;99776.19;;;10.43;100.00
804;BME280;25687;49.976;8.240;2023-04-29T01:02:52;99784.19;;;10.38;100.00
804;BME280;25687;49.976;8.240;2023-04-29T01:05:21;99778.69;;;10.59;100.00
804;BME280;25687;49.976;8.240;2023-04-29T01:07:59;99789.88;;;10.58;100.00
804;BME280;25687;49.976;8.240;2023-04-29T01:10:30;99780.06;;;10.64;100.00
804;BME280;25687;49.976;8.240;2023-04-29T01:18:04;99788.88;;;10.46;100.00
804;BME280;25687;49.976;8.240;2023-04-29T01:20:33;99786.06;;;10.51;100.00
804;BME280;25687;49.976;8.240;2023-04-29T01:22:59;99782.88;;;10.31;100.00
804;BME280;25687;49.976;8.240;2023-04-29T01:25:24;99784.03;;;10.25;100.00
804;BME280;25687;49.976;8.240;2023-04-29T01:31:04;99783.28;;;10.09;100.00
804;BME280;25687;49.976;8.240;2023-04-29T01:33:56;99786.66;;;9.95;100.00
804;BME280;25687;49.976;8.240;2023-04-29T01:36:42;99791.94;;;9.92;100.00
804;BME280;25687;49.976;8.240;2023-04-29T01:39:25;99791.19;;;9.90;100.00
804;BME280;25687;49.976;8.240;2023-04-29T01:42:05;99793.22;;;9.84;100.00
804;BME280;25687;49.976;8.240;2023-04-29T01:44:35;99798.44;;;9.83;100.00
804;BME280;25687;49.976;8.240;2023-04-29T01:53:45;99793.41;;;9.65;100.00
804;BME280;25687;49.976;8.240;2023-04-29T01:56:10;99803.84;;;9.62;100.00
804;BME280;25687;49.976;8.240;2023-04-29T01:58:35;99798.56;;;9.65;100.00
804;BME280;25687;49.976;8.240;2023-04-29T02:01:01;99798.00;;;9.44;100.00
804;BME280;25687;49.976;8.240;2023-04-29T02:03:26;99800.56;;;9.44;100.00
804;BME280;25687;49.976;8.240;2023-04-29T02:05:51;99798.47;;;9.51;100.00
804;BME280;25687;49.976;8.240;2023-04-29T02:08:17;99799.38;;;9.50;100.00
804;BME280;25687;49.976;8.240;2023-04-29T02:10:53;99807.19;;;9.48;100.00
804;BME280;25687;49.976;8.240;2023-04-29T02:13:18;99808.97;;;9.62;100.00
804;BME280;25687;49.976;8.240;2023-04-29T02:15:44;99807.66;;;9.71;100.00
804;BME280;25687;49.976;8.240;2023-04-29T02:18:09;99811.38;;;9.81;100.00
804;BME280;25687;49.976;8.240;2023-04-29T02:20:34;99812.34;;;9.95;100.00
804;BME280;25687;49.976;8.240;2023-04-29T02:22:59;99815.47;;;10.00;100.00
804;BME280;25687;49.976;8.240;2023-04-29T02:25:25;99815.03;;;10.08;100.00
804;BME280;25687;49.976;8.240;2023-04-29T02:27:50;99811.66;;;10.22;100.00
804;BME280;25687;49.976;8.240;2023-04-29T02:30:16;99807.00;;;10.28;100.00
804;BME280;25687;49.976;8.240;2023-04-29T02:32:41;99810.03;;;10.35;100.00
804;BME280;25687;49.976;8.240;2023-04-29T02:35:06;99815.63;;;10.43;100.00
804;BME280;25687;49.976;8.240;2023-04-29T02:37:32;99812.47;;;10.53;100.00
804;BME280;25687;49.976;8.240;2023-04-29T02:39:58;99816.56;;;10.57;100.00
804;BME280;25687;49.976;8.240;2023-04-29T02:42:23;99816.25;;;10.61;100.00
804;BME280;25687;49.976;8.240;2023-04-29T02:44:48;99819.56;;;10.63;100.00
804;BME280;25687;49.976;8.240;2023-04-29T02:47:13;99830.41;;;10.69;100.00
804;BME280;25687;49.976;8.240;2023-04-29T02:49:39;99830.25;;;10.72;100.00
804;BME280;25687;49.976;8.240;2023-04-29T02:52:04;99822.53;;;10.72;100.00
804;BME280;25687;49.976;8.240;2023-04-29T02:54:30;99818.09;;;10.74;100.00
804;BME280;25687;49.976;8.240;2023-04-29T02:56:55;99822.59;;;10.70;100.00
804;BME280;25687;49.976;8.240;2023-04-29T02:59:21;99833.38;;;10.77;100.00
804;BME280;25687;49.976;8.240;2023-04-29T03:01:46;99838.03;;;10.70;100.00
804;BME280;25687;49.976;8.240;2023-04-29T03:04:12;99833.09;;;10.67;100.00
804;BME280;25687;49.976;8.240;2023-04-29T03:06:37;99837.97;;;10.72;100.00
804;BME280;25687;49.976;8.240;2023-04-29T03:09:02;99829.03;;;10.77;100.00
804;BME280;25687;49.976;8.240;2023-04-29T03:11:28;99831.72;;;10.76;100.00
804;BME280;25687;49.976;8.240;2023-04-29T03:13:53;99839.16;;;10.80;100.00
804;BME280;25687;49.976;8.240;2023-04-29T03:16:19;99842.75;;;10.78;100.00
804;BME280;25687;49.976;8.240;2023-04-29T03:18:45;99847.31;;;10.87;100.00
804;BME280;25687;49.976;8.240;2023-04-29T03:21:10;99839.25;;;10.93;100.00
804;BME280;25687;49.976;8.240;2023-04-29T03:23:36;99842.94;;;10.89;100.00
804;BME280;25687;49.976;8.240;2023-04-29T03:26:03;99841.91;;;10.92;100.00
804;BME280;25687;49.976;8.240;2023-04-29T03:28:28;99840.91;;;11.09;100.00
804;BME280;25687;49.976;8.240;2023-04-29T03:30:54;99832.97;;;10.97;100.00
804;BME280;25687;49.976;8.240;2023-04-29T03:33:20;99832.72;;;11.02;100.00
804;BME280;25687;49.976;8.240;2023-04-29T03:35:45;99832.06;;;11.13;100.00
804;BME280;25687;49.976;8.240;2023-04-29T03:38:11;99834.38;;;11.18;100.00
804;BME280;25687;49.976;8.240;2023-04-29T03:40:36;99832.59;;;11.18;100.00
804;BME280;25687;49.976;8.240;2023-04-29T03:43:02;99833.06;;;11.10;100.00
804;BME280;25687;49.976;8.240;2023-04-29T03:45:28;99831.59;;;11.06;100.00
804;BME280;25687;49.976;8.240;2023-04-29T03:47:53;99837.84;;;11.02;100.00
804;BME280;25687;49.976;8.240;2023-04-29T03:50:19;99833.44;;;11.04;100.00
804;BME280;25687;49.976;8.240;2023-04-29T03:52:44;99834.25;;;11.05;100.00
804;BME280;25687;49.976;8.240;2023-04-29T03:55:10;99842.47;;;11.11;100.00
804;BME280;25687;49.976;8.240;2023-04-29T03:57:37;99843.38;;;11.10;100.00
804;BME280;25687;49.976;8.240;2023-04-29T04:00:02;99849.59;;;11.21;100.00
804;BME280;25687;49.976;8.240;2023-04-29T04:02:28;99858.16;;;11.21;100.00
804;BME280;25687;49.976;8.240;2023-04-29T04:04:53;99856.84;;;11.28;100.00
804;BME280;25687;49.976;8.240;2023-04-29T04:07:19;99860.66;;;11.23;100.00
804;BME280;25687;49.976;8.240;2023-04-29T04:09:44;99854.00;;;11.33;100.00
804;BME280;25687;49.976;8.240;2023-04-29T04:12:10;99860.53;;;11.24;100.00
804;BME280;25687;49.976;8.240;2023-04-29T04:14:35;99862.19;;;11.25;100.00
804;BME280;25687;49.976;8.240;2023-04-29T04:17:00;99864.56;;;11.28;100.00
804;BME280;25687;49.976;8.240;2023-04-29T04:19:25;99857.69;;;11.29;100.00
804;BME280;25687;49.976;8.240;2023-04-29T04:21:53;99865.19;;;11.46;100.00
804;BME280;25687;49.976;8.240;2023-04-29T04:24:18;99864.75;;;11.40;100.00
804;BME280;25687;49.976;8.240;2023-04-29T04:26:43;99866.34;;;11.28;100.00
804;BME280;25687;49.976;8.240;2023-04-29T04:29:08;99869.06;;;11.39;100.00
804;BME280;25687;49.976;8.240;2023-04-29T04:31:34;99873.97;;;11.29;100.00
804;BME280;25687;49.976;8.240;2023-04-29T04:34:00;99875.78;;;11.42;100.00
804;BME280;25687;49.976;8.240;2023-04-29T04:36:26;99870.84;;;11.39;100.00
804;BME280;25687;49.976;8.240;2023-04-29T04:38:51;99871.13;;;11.34;100.00
804;BME280;25687;49.976;8.240;2023-04-29T04:41:16;99886.66;;;11.33;100.00
804;BME280;25687;49.976;8.240;2023-04-29T04:43:42;99881.41;;;11.20;100.00
804;BME280;25687;49.976;8.240;2023-04-29T04:46:14;99888.97;;;11.23;100.00
804;BME280;25687;49.976;8.240;2023-04-29T04:48:41;99887.56;;;11.32;100.00
804;BME280;25687;49.976;8.240;2023-04-29T04:51:07;99889.25;;;11.33;100.00
804;BME280;25687;49.976;8.240;2023-04-29T04:53:33;99887.09;;;11.25;100.00
804;BME280;25687;49.976;8.240;2023-04-29T04:56:02;99895.41;;;11.30;100.00
804;BME280;25687;49.976;8.240;2023-04-29T04:58:27;99896.97;;;11.33;100.00
804;BME280;25687;49.976;8.240;2023-04-29T05:00:52;99895.56;;;11.41;100.00
804;BME280;25687;49.976;8.240;2023-04-29T05:03:18;99894.66;;;11.28;100.00
804;BME280;25687;49.976;8.240;2023-04-29T05:05:43;99900.56;;;11.30;100.00
804;BME280;25687;49.976;8.240;2023-04-29T05:08:08;99904.59;;;11.34;100.00
804;BME280;25687;49.976;8.240;2023-04-29T05:10:36;99908.34;;;11.43;100.00
804;BME280;25687;49.976;8.240;2023-04-29T05:13:02;99914.78;;;11.50;100.00
804;BME280;25687;49.976;8.240;2023-04-29T05:15:27;99911.19;;;11.53;100.00
804;BME280;25687;49.976;8.240;2023-04-29T05:17:53;99909.44;;;11.53;100.00
804;BME280;25687;49.976;8.240;2023-04-29T05:20:18;99915.38;;;11.68;100.00
804;BME280;25687;49.976;8.240;2023-04-29T05:22:45;99915.63;;;11.78;100.00
804;BME280;25687;49.976;8.240;2023-04-29T05:25:10;99913.78;;;11.94;100.00
804;BME280;25687;49.976;8.240;2023-04-29T05:27:36;99916.06;;;11.99;100.00
804;BME280;25687;49.976;8.240;2023-04-29T05:30:01;99915.56;;;11.79;100.00
804;BME280;25687;49.976;8.240;2023-04-29T05:32:26;99920.25;;;11.73;100.00
804;BME280;25687;49.976;8.240;2023-04-29T05:34:52;99925.31;;;11.74;100.00
804;BME280;25687;49.976;8.240;2023-04-29T05:37:17;99928.84;;;11.73;100.00
804;BME280;25687;49.976;8.240;2023-04-29T05:39:42;99930.94;;;11.67;100.00
804;BME280;25687;49.976;8.240;2023-04-29T05:42:08;99929.38;;;11.64;100.00
804;BME280;25687;49.976;8.240;2023-04-29T05:44:33;99940.72;;;11.47;100.00
804;BME280;25687;49.976;8.240;2023-04-29T05:46:59;99946.81;;;11.32;100.00
804;BME280;25687;49.976;8.240;2023-04-29T05:49:24;99954.59;;;11.44;100.00
804;BME280;25687;49.976;8.240;2023-04-29T05:51:49;99964.28;;;11.55;100.00
804;BME280;25687;49.976;8.240;2023-04-29T05:54:15;99963.63;;;11.66;100.00
804;BME280;25687;49.976;8.240;2023-04-29T05:56:40;99971.25;;;11.68;100.00
804;BME280;25687;49.976;8.240;2023-04-29T05:59:06;99973.44;;;11.74;100.00
804;BME280;25687;49.976;8.240;2023-04-29T06:01:32;99975.53;;;11.82;100.00
804;BME280;25687;49.976;8.240;2023-04-29T06:03:57;99980.22;;;11.89;100.00
804;BME280;25687;49.976;8.240;2023-04-29T06:06:23;99983.94;;;12.00;100.00
804;BME280;25687;49.976;8.240;2023-04-29T06:08:48;99983.81;;;12.16;100.00
804;BME280;25687;49.976;8.240;2023-04-29T06:11:13;99986.78;;;12.09;100.00
804;BME280;25687;49.976;8.240;2023-04-29T06:13:39;99986.19;;;12.19;100.00
804;BME280;25687;49.976;8.240;2023-04-29T06:16:04;99985.75;;;12.12;100.00
804;BME280;25687;49.976;8.240;2023-04-29T06:18:30;99990.28;;;12.36;100.00
804;BME280;25687;49.976;8.240;2023-04-29T06:20:55;99992.59;;;12.66;100.00
804;BME280;25687;49.976;8.240;2023-04-29T06:23:20;99995.69;;;12.58;100.00
804;BME280;25687;49.976;8.240;2023-04-29T06:25:46;99997.84;;;12.52;100.00
804;BME280;25687;49.976;8.240;2023-04-29T06:28:11;100003.09;;;12.78;100.00
804;BME280;25687;49.976;8.240;2023-04-29T06:30:36;100002.88;;;12.94;100.00
804;BME280;25687;49.976;8.240;2023-04-29T06:33:01;100010.19;;;13.40;100.00
804;BME280;25687;49.976;8.240;2023-04-29T06:35:27;100017.41;;;13.48;100.00
804;BME280;25687;49.976;8.240;2023-04-29T06:37:52;100016.16;;;13.15;100.00
804;BME280;25687;49.976;8.240;2023-04-29T06:40:17;100026.00;;;12.82;100.00
804;BME280;25687;49.976;8.240;2023-04-29T06:42:43;100030.00;;;12.73;100.00
804;BME280;25687;49.976;8.240;2023-04-29T06:45:09;100031.19;;;12.55;100.00
804;BME280;25687;49.976;8.240;2023-04-29T06:47:34;100030.00;;;12.73;100.00
804;BME280;25687;49.976;8.240;2023-04-29T06:49:59;100028.91;;;12.78;100.00
804;BME280;25687;49.976;8.240;2023-04-29T06:52:25;100038.03;;;12.69;100.00
804;BME280;25687;49.976;8.240;2023-04-29T06:54:50;100038.91;;;12.27;100.00
804;BME280;25687;49.976;8.240;2023-04-29T06:57:16;100038.09;;;12.27;100.00
804;BME280;25687;49.976;8.240;2023-04-29T06:59:41;100047.19;;;12.33;100.00
804;BME280;25687;49.976;8.240;2023-04-29T07:02:06;100042.16;;;12.17;100.00
804;BME280;25687;49.976;8.240;2023-04-29T07:04:31;100043.81;;;12.18;100.00
804;BME280;25687;49.976;8.240;2023-04-29T07:06:57;100042.41;;;12.26;100.00
804;BME280;25687;49.976;8.240;2023-04-29T07:09:23;100047.78;;;12.51;100.00
804;BME280;25687;49.976;8.240;2023-04-29T07:11:51;100053.25;;;12.46;100.00
804;BME280;25687;49.976;8.240;2023-04-29T07:14:16;100051.28;;;12.50;100.00
804;BME280;25687;49.976;8.240;2023-04-29T07:16:41;100055.88;;;12.59;100.00
804;BME280;25687;49.976;8.240;2023-04-29T07:19:07;100063.41;;;12.62;100.00
804;BME280;25687;49.976;8.240;2023-04-29T07:21:32;100067.66;;;12.63;100.00
804;BME280;25687;49.976;8.240;2023-04-29T07:23:57;100057.72;;;12.84;100.00
804;BME280;25687;49.976;8.240;2023-04-29T07:26:25;100067.63;;;12.78;100.00
804;BME280;25687;49.976;8.240;2023-04-29T07:28:50;100076.66;;;12.70;100.00
804;BME280;25687;49.976;8.240;2023-04-29T07:31:15;100077.31;;;12.74;100.00
804;BME280;25687;49.976;8.240;2023-04-29T07:33:41;100076.53;;;12.99;100.00
804;BME280;25687;49.976;8.240;2023-04-29T07:36:06;100072.59;;;12.94;100.00
804;BME280;25687;49.976;8.240;2023-04-29T07:38:33;100081.88;;;12.83;100.00
804;BME280;25687;49.976;8.240;2023-04-29T07:40:58;100087.22;;;13.07;100.00
804;BME280;25687;49.976;8.240;2023-04-29T07:43:24;100090.09;;;13.16;100.00
804;BME280;25687;49.976;8.240;2023-04-29T07:45:49;100095.50;;;13.26;100.00
804;BME280;25687;49.976;8.240;2023-04-29T07:48:15;100089.88;;;13.06;100.00
804;BME280;25687;49.976;8.240;2023-04-29T07:50:40;100097.81;;;12.90;100.00
804;BME280;25687;49.976;8.240;2023-04-29T07:53:06;100104.66;;;12.77;100.00
804;BME280;25687;49.976;8.240;2023-04-29T07:55:32;100108.81;;;12.52;100.00
804;BME280;25687;49.976;8.240;2023-04-29T07:57:58;100105.34;;;12.66;100.00
804;BME280;25687;49.976;8.240;2023-04-29T08:00:23;100115.31;;;12.57;100.00
804;BME280;25687;49.976;8.240;2023-04-29T08:02:53;100117.88;;;12.72;100.00
804;BME280;25687;49.976;8.240;2023-04-29T08:05:19;100120.69;;;12.82;100.00
804;BME280;25687;49.976;8.240;2023-04-29T08:07:48;100127.25;;;12.73;100.00
804;BME280;25687;49.976;8.240;2023-04-29T08:10:15;100127.16;;;12.74;100.00
804;BME280;25687;49.976;8.240;2023-04-29T08:12:40;100125.34;;;12.62;100.00
804;BME280;25687;49.976;8.240;2023-04-29T08:15:06;100126.72;;;12.68;100.00
804;BME280;25687;49.976;8.240;2023-04-29T08:17:31;100133.06;;;12.77;100.00
804;BME280;25687;49.976;8.240;2023-04-29T08:19:57;100130.75;;;12.72;100.00
804;BME280;25687;49.976;8.240;2023-04-29T08:22:22;100144.56;;;12.85;100.00
804;BME280;25687;49.976;8.240;2023-04-29T08:24:47;100147.47;;;12.94;100.00
804;BME280;25687;49.976;8.240;2023-04-29T08:27:13;100141.63;;;13.04;100.00
804;BME280;25687;49.976;8.240;2023-04-29T08:29:39;100139.25;;;13.01;100.00
804;BME280;25687;49.976;8.240;2023-04-29T08:32:05;100147.81;;;13.02;100.00
804;BME280;25687;49.976;8.240;2023-04-29T08:34:30;100145.84;;;13.05;100.00
804;BME280;25687;49.976;8.240;2023-04-29T08:36:57;100146.69;;;13.06;100.00
804;BME280;25687;49.976;8.240;2023-04-29T08:39:22;100146.78;;;13.04;100.00
804;BME280;25687;49.976;8.240;2023-04-29T08:41:48;100150.63;;;13.12;100.00
804;BME280;25687;49.976;8.240;2023-04-29T08:44:16;100149.25;;;13.06;100.00
804;BME280;25687;49.976;8.240;2023-04-29T08:46:43;100155.69;;;13.13;100.00
804;BME280;25687;49.976;8.240;2023-04-29T08:49:09;100156.63;;;13.12;100.00
804;BME280;25687;49.976;8.240;2023-04-29T08:51:35;100159.38;;;12.96;100.00
804;BME280;25687;49.976;8.240;2023-04-29T08:54:00;100169.63;;;12.83;100.00
804;BME280;25687;49.976;8.240;2023-04-29T08:56:27;100172.06;;;12.72;100.00
804;BME280;25687;49.976;8.240;2023-04-29T08:58:56;100170.22;;;12.74;100.00
804;BME280;25687;49.976;8.240;2023-04-29T09:01:27;100171.69;;;12.64;100.00
804;BME280;25687;49.976;8.240;2023-04-29T09:04:10;100177.06;;;12.61;100.00
804;BME280;25687;49.976;8.240;2023-04-29T09:06:36;100175.88;;;12.37;100.00
804;BME280;25687;49.976;8.240;2023-04-29T09:09:02;100167.50;;;12.48;100.00
804;BME280;25687;49.976;8.240;2023-04-29T09:11:29;100184.75;;;12.33;100.00
804;BME280;25687;49.976;8.240;2023-04-29T09:13:59;100182.97;;;12.34;100.00
804;BME280;25687;49.976;8.240;2023-04-29T09:16:25;100189.16;;;12.17;100.00
804;BME280;25687;49.976;8.240;2023-04-29T09:18:51;100190.47;;;12.09;100.00
804;BME280;25687;49.976;8.240;2023-04-29T09:21:20;100196.44;;;12.10;100.00
804;BME280;25687;49.976;8.240;2023-04-29T09:23:48;100195.59;;;12.24;100.00
804;BME280;25687;49.976;8.240;2023-04-29T09:26:15;100203.34;;;12.24;100.00
804;BME280;25687;49.976;8.240;2023-04-29T09:28:40;100205.38;;;12.33;100.00
804;BME280;25687;49.976;8.240;2023-04-29T09:31:09;100206.38;;;12.59;100.00
804;BME280;25687;49.976;8.240;2023-04-29T09:33:56;100206.81;;;12.66;100.00
804;BME280;25687;49.976;8.240;2023-04-29T09:39:22;100207.00;;;12.78;100.00
804;BME280;25687;49.976;8.240;2023-04-29T09:44:23;100204.81;;;13.26;100.00
804;BME280;25687;49.976;8.240;2023-04-29T09:47:15;100211.22;;;13.48;100.00
804;BME280;25687;49.976;8.240;2023-04-29T09:49:42;100208.44;;;13.51;100.00
804;BME280;25687;49.976;8.240;2023-04-29T09:52:14;100205.69;;;13.67;100.00
804;BME280;25687;49.976;8.240;2023-04-29T09:54:44;100216.66;;;13.96;100.00
804;BME280;25687;49.976;8.240;2023-04-29T09:57:11;100211.16;;;14.14;100.00
804;BME280;25687;49.976;8.240;2023-04-29T09:59:39;100215.31;;;14.29;100.00
804;BME280;25687;49.976;8.240;2023-04-29T10:02:12;100212.31;;;14.35;100.00
804;BME280;25687;49.976;8.240;2023-04-29T10:04:40;100212.50;;;14.45;100.00
804;BME280;25687;49.976;8.240;2023-04-29T10:07:07;100214.31;;;14.56;100.00
804;BME280;25687;49.976;8.240;2023-04-29T10:09:33;100223.41;;;14.88;100.00
804;BME280;25687;49.976;8.240;2023-04-29T10:12:03;100227.16;;;14.83;100.00
804;BME280;25687;49.976;8.240;2023-04-29T10:14:31;100217.94;;;14.79;100.00
804;BME280;25687;49.976;8.240;2023-04-29T10:17:10;100216.81;;;14.71;100.00
804;BME280;25687;49.976;8.240;2023-04-29T10:19:55;100215.78;;;14.60;100.00
804;BME280;25687;49.976;8.240;2023-04-29T10:22:28;100214.78;;;14.37;100.00
804;BME280;25687;49.976;8.240;2023-04-29T10:25:00;100217.38;;;13.98;100.00
804;BME280;25687;49.976;8.240;2023-04-29T10:27:26;100227.25;;;13.53;100.00
804;BME280;25687;49.976;8.240;2023-04-29T10:29:54;100223.31;;;13.20;100.00
804;BME280;25687;49.976;8.240;2023-04-29T10:32:21;100231.44;;;13.14;100.00
804;BME280;25687;49.976;8.240;2023-04-29T10:34:47;100226.28;;;12.99;100.00
804;BME280;25687;49.976;8.240;2023-04-29T10:37:13;100226.19;;;13.01;100.00
804;BME280;25687;49.976;8.240;2023-04-29T10:39:55;100234.25;;;12.96;100.00
804;BME280;25687;49.976;8.240;2023-04-29T10:42:47;100235.84;;;13.12;100.00
804;BME280;25687;49.976;8.240;2023-04-29T10:53:11;100235.38;;;13.47;100.00
804;BME280;25687;49.976;8.240;2023-04-29T10:55:37;100236.66;;;13.54;100.00
804;BME280;25687;49.976;8.240;2023-04-29T10:58:03;100234.81;;;13.56;100.00
804;BME280;25687;49.976;8.240;2023-04-29T11:00:31;100241.31;;;13.62;100.00
804;BME280;25687;49.976;8.240;2023-04-29T11:02:58;100237.44;;;13.82;100.00
804;BME280;25687;49.976;8.240;2023-04-29T11:05:35;100230.09;;;14.01;100.00
804;BME280;25687;49.976;8.240;2023-04-29T11:08:10;100231.16;;;14.38;100.00
804;BME280;25687;49.976;8.240;2023-04-29T11:10:39;100226.97;;;14.61;100.00
804;BME280;25687;49.976;8.240;2023-04-29T11:13:26;100226.88;;;14.75;100.00
804;BME280;25687;49.976;8.240;2023-04-29T11:15:52;100228.78;;;14.97;100.00
804;BME280;25687;49.976;8.240;2023-04-29T11:18:18;100226.16;;;15.46;100.00
804;BME280;25687;49.976;8.240;2023-04-29T11:23:40;100227.88;;;15.70;100.00
804;BME280;25687;49.976;8.240;2023-04-29T11:26:06;100226.09;;;15.59;100.00
804;BME280;25687;49.976;8.240;2023-04-29T11:28:32;100227.13;;;15.56;100.00
804;BME280;25687;49.976;8.240;2023-04-29T11:30:58;100228.88;;;14.96;100.00
804;BME280;25687;49.976;8.240;2023-04-29T11:33:24;100230.44;;;14.85;100.00
804;BME280;25687;49.976;8.240;2023-04-29T11:35:52;100223.34;;;15.00;100.00
804;BME280;25687;49.976;8.240;2023-04-29T11:38:23;100223.72;;;14.96;100.00
804;BME280;25687;49.976;8.240;2023-04-29T11:40:49;100234.34;;;15.28;100.00
804;BME280;25687;49.976;8.240;2023-04-29T11:43:18;100230.31;;;15.24;100.00
804;BME280;25687;49.976;8.240;2023-04-29T11:45:45;100230.22;;;15.61;100.00
804;BME280;25687;49.976;8.240;2023-04-29T11:48:19;100218.88;;;15.87;100.00
804;BME280;25687;49.976;8.240;2023-04-29T11:50:47;100228.34;;;15.63;100.00
804;BME280;25687;49.976;8.240;2023-04-29T11:53:13;100236.38;;;15.60;100.00
804;BME280;25687;49.976;8.240;2023-04-29T11:55:43;100229.22;;;15.75;100.00
804;BME280;25687;49.976;8.240;2023-04-29T11:58:09;100228.53;;;15.85;100.00
804;BME280;25687;49.976;8.240;2023-04-29T12:00:35;100223.50;;;16.17;100.00
804;BME280;25687;49.976;8.240;2023-04-29T12:03:00;100225.66;;;16.57;100.00
804;BME280;25687;49.976;8.240;2023-04-29T12:05:26;100221.63;;;16.53;100.00
804;BME280;25687;49.976;8.240;2023-04-29T12:07:51;100225.50;;;16.93;100.00
804;BME280;25687;49.976;8.240;2023-04-29T12:10:17;100216.72;;;17.05;100.00
804;BME280;25687;49.976;8.240;2023-04-29T12:12:42;100214.00;;;17.39;100.00
804;BME280;25687;49.976;8.240;2023-04-29T12:15:09;100218.84;;;17.44;98.50
804;BME280;25687;49.976;8.240;2023-04-29T12:17:35;100217.09;;;17.33;98.38
804;BME280;25687;49.976;8.240;2023-04-29T12:20:01;100218.72;;;17.67;98.62
804;BME280;25687;49.976;8.240;2023-04-29T12:22:30;100213.25;;;18.12;95.38
804;BME280;25687;49.976;8.240;2023-04-29T12:24:56;100206.56;;;18.19;90.93
804;BME280;25687;49.976;8.240;2023-04-29T12:27:21;100211.28;;;18.35;93.11
804;BME280;25687;49.976;8.240;2023-04-29T12:29:46;100210.66;;;18.22;94.91
804;BME280;25687;49.976;8.240;2023-04-29T12:32:16;100212.75;;;18.28;93.83
804;BME280;25687;49.976;8.240;2023-04-29T12:34:41;100217.13;;;17.75;98.49
804;BME280;25687;49.976;8.240;2023-04-29T12:37:08;100212.84;;;17.32;99.29
804;BME280;25687;49.976;8.240;2023-04-29T12:39:34;100223.59;;;16.95;100.00
804;BME280;25687;49.976;8.240;2023-04-29T12:42:00;100227.38;;;16.68;97.88
804;BME280;25687;49.976;8.240;2023-04-29T12:44:35;100227.69;;;17.09;100.00
804;BME280;25687;49.976;8.240;2023-04-29T12:47:08;100221.63;;;17.52;96.45
804;BME280;25687;49.976;8.240;2023-04-29T12:49:35;100226.44;;;17.57;97.86
804;BME280;25687;49.976;8.240;2023-04-29T12:52:01;100222.06;;;17.57;98.75
804;BME280;25687;49.976;8.240;2023-04-29T12:54:27;100228.25;;;17.56;99.00
804;BME280;25687;49.976;8.240;2023-04-29T12:56:52;100222.25;;;17.12;96.16
804;BME280;25687;49.976;8.240;2023-04-29T12:59:18;100228.38;;;16.67;99.26
804;BME280;25687;49.976;8.240;2023-04-29T13:01:43;100227.69;;;16.31;100.00
804;BME280;25687;49.976;8.240;2023-04-29T13:04:08;100235.59;;;15.82;100.00
804;BME280;25687;49.976;8.240;2023-04-29T13:06:36;100229.22;;;15.75;100.00
804;BME280;25687;49.976;8.240;2023-04-29T13:09:06;100234.94;;;15.68;100.00
804;BME280;25687;49.976;8.240;2023-04-29T13:11:31;100230.69;;;16.02;100.00
804;BME280;25687;49.976;8.240;2023-04-29T13:13:56;100229.91;;;16.24;100.00
804;BME280;25687;49.976;8.240;2023-04-29T13:16:22;100225.41;;;16.38;100.00
804;BME280;25687;49.976;8.240;2023-04-29T13:18:48;100227.41;;;16.34;100.00
804;BME280;25687;49.976;8.240;2023-04-29T13:21:14;100231.06;;;16.43;100.00
804;BME280;25687;49.976;8.240;2023-04-29T13:23:39;100238.53;;;16.48;100.00
804;BME280;25687;49.976;8.240;2023-04-29T13:26:05;100232.00;;;16.53;100.00
804;BME280;25687;49.976;8.240;2023-04-29T13:28:30;100232.97;;;16.64;100.00
804;BME280;25687;49.976;8.240;2023-04-29T13:30:55;100235.19;;;16.68;100.00
804;BME280;25687;49.976;8.240;2023-04-29T13:33:21;100229.06;;;16.12;100.00
804;BME280;25687;49.976;8.240;2023-04-29T13:35:47;100244.59;;;15.90;100.00
804;BME280;25687;49.976;8.240;2023-04-29T13:38:12;100241.94;;;15.78;100.00